Monday, February 19, 2018, 9:53 AM GMT
Back to Local

CYBC, Baie Comeau, Que.

Location: , , Canada Lat: 49.133
Local Time: 9:53 AM GMT ( 9:53 GMT) Lon: -68.2
Time Zone: GMT Elev: 68 ft

Show me the last for .
Show Decoded

2018-02-19 09:00 METAR CYBC 190900Z AUTO 01002KT 9SM BKN015 OVC100 M11/M13 A3032 RMK SLP272 =
2018-02-19 08:48 METAR CYBC 190848Z AUTO 00000KT 9SM BKN015 OVC100 M12/M14 A3032 RMK SLP271 =
2018-02-19 08:43 METAR CYBC 190843Z AUTO 00000KT 9SM SCT015 OVC100 M12/M14 A3032 RMK SLP272 =
2018-02-19 08:26 METAR CYBC 190826Z AUTO VRB02KT 9SM BKN015 BKN100 M13/M14 A3033 RMK SLP273 =
2018-02-19 08:00 METAR CYBC 190800Z AUTO 36002KT 9SM SCT060 OVC100 M12/M14 A3034 RMK PRESFR
                 SLP276 =
2018-02-19 07:00 METAR CYBC 190700Z AUTO 21003KT 9SM CLR M13/M14 A3036 RMK SLP283 =
2018-02-19 06:00 METAR CYBC 190600Z AUTO 00000KT 9SM CLR M13/M14 A3034 RMK SLP279 =
2018-02-19 05:00 METAR CYBC 190500Z AUTO 26006KT 9SM FEW230 M11/M13 A3033 RMK SLP273 =
2018-02-19 04:00 METAR CYBC 190400Z AUTO 34004KT 9SM CLR M08/M11 A3033 RMK SLP274 =
2018-02-19 03:00 METAR CYBC 190300Z AUTO 28006KT 9SM CLR M06/M11 A3032 RMK SLP270 =
2018-02-19 02:00 METAR CYBC 190200Z AUTO 28006KT 9SM CLR M06/M11 A3031 RMK SLP269 =
2018-02-19 01:00 METAR CYBC 190100Z AUTO 28006KT 9SM CLR M04/M10 A3026 RMK SLP248 =
2018-02-19 00:00 METAR CYBC 190000Z AUTO 27007KT 9SM CLR M04/M11 A3023 RMK SLP239 =
2018-02-18 23:00 METAR CYBC 182300Z AUTO 29004KT 9SM CLR M04/M12 A3018 RMK SLP224 =
2018-02-18 22:00 METAR CYBC 182200Z AUTO 29003KT 9SM CLR M02/M11 A3012 RMK SLP202 =
2018-02-18 21:00 METAR CYBC 182100Z AUTO 28008G17KT 9SM FEW042 OVC065 M00/M08 A3011 RMK SLP198 =
2018-02-18 20:00 METAR CYBC 182000Z AUTO 24011KT 9SM CLR M02/M07 A3007 RMK SLP184 =
2018-02-18 19:00 METAR CYBC 181900Z AUTO 23013KT 9SM FEW048 BKN060 M02/M07 A3004 RMK SLP174 =
2018-02-18 18:00 METAR CYBC 181800Z AUTO 23013KT 9SM CLR M02/M08 A3001 RMK SLP165 =
2018-02-18 17:00 METAR CYBC 181700Z AUTO 23013KT 9SM CLR M02/M09 A3000 RMK SLP163 =
2018-02-18 16:00 METAR CYBC 181600Z AUTO 26008KT 9SM CLR M02/M09 A2999 RMK SLP157 =
2018-02-18 15:00 METAR CYBC 181500Z AUTO 24013KT 9SM CLR M03/M07 A2998 RMK SLP154 =
2018-02-18 14:01 METAR CYBC 181401Z AUTO 26007KT 9SM SCT019 M04/M07 A2997 RMK SLP151 =
2018-02-18 14:00 METAR CYBC 181400Z AUTO 26008KT 9SM SCT016 BKN021 M04/M07 A2997 RMK SLP151 =
2018-02-18 13:00 METAR CYBC 181300Z AUTO 25014KT 9SM OVC020 M04/M07 A2996 RMK SLP149 =
2018-02-18 12:09 METAR CYBC 181209Z AUTO 24014KT 9SM BKN020 BKN026 M04/M07 A2995 RMK SLP144 =
2018-02-18 12:00 METAR CYBC 181200Z AUTO 24011G16KT 9SM SCT018 BKN026 BKN110 M04/M07 A2994 RMK
                 SLP143 =
2018-02-18 11:59 METAR CYBC 181159Z AUTO 24012G17KT 9SM SCT018 BKN026 BKN030 BKN110 M04/M07 A2994
                 RMK SLP143 =
2018-02-18 11:55 METAR CYBC 181155Z AUTO 23013KT 9SM SCT018 BKN024 BKN030 BKN110 M04/M07 A2994
                 RMK SLP143 =
2018-02-18 11:39 METAR CYBC 181139Z AUTO 23014KT 9SM SCT024 BKN030 OVC110 M04/M08 A2994 RMK
                 SLP142 =
2018-02-18 11:19 METAR CYBC 181119Z AUTO 20009KT 9SM BKN024 OVC100 M04/M09 A2994 RMK SLP141 =
2018-02-18 11:00 METAR CYBC 181100Z AUTO 21011KT 9SM OVC110 M05/M10 A2994 RMK SLP142 =
2018-02-18 10:00 METAR CYBC 181000Z AUTO 20011G16KT 9SM FEW120 M05/M11 A2994 RMK SLP143 =

Support USWX by starting your Amazon purchase here.